THY6XR LTFM-LIPE
Flight info
| Callsign | THY6XR |
|---|---|
| Flight time | 2h 5m |
| Altitude | 36000 |
| Route | VADEN1E/36 VADEN N618 GOL DCT DOLAP DCT RAVAK DCT PUL DCT BASOG DCT ARVOD/N0363F190 P125 BAMEK |
| Aircraft | A321/M-SDE3FGHIRWY/LB1 |
Departure
| Time | 2026-05-04 14:30 |
|---|---|
| Airport | İstanbul Airport (LTFM) |
Arrival
| Time | 2026-05-04 16:36 |
|---|---|
| Airport | Bologna Guglielmo Marconi Airport (LIPE) |
| Time | Latitude | Longitude | Altitude | Speed | Heading |
|---|---|---|---|---|---|
| 2026-05-04 13:58 | 41.26475 | 28.74692 | 334 ft | 0 kts | 106° |
| 2026-05-04 14:15 | 41.26479 | 28.74677 | 331 ft | 3 kts | 106° |
| 2026-05-04 14:15 | 41.26490 | 28.74628 | 334 ft | 2 kts | 106° |
| 2026-05-04 14:16 | 41.26488 | 28.74589 | 334 ft | 3 kts | 21° |
| 2026-05-04 14:16 | 41.26469 | 28.74582 | 329 ft | 3 kts | 9° |
| 2026-05-04 14:17 | 41.26453 | 28.74579 | 334 ft | 0 kts | 17° |
| 2026-05-04 14:22 | 41.26458 | 28.74581 | 331 ft | 3 kts | 19° |
| 2026-05-04 14:22 | 41.26505 | 28.74599 | 331 ft | 10 kts | 17° |
| 2026-05-04 14:23 | 41.26658 | 28.74616 | 334 ft | 12 kts | 359° |
| 2026-05-04 14:23 | 41.26745 | 28.74612 | 331 ft | 13 kts | 357° |
| 2026-05-04 14:23 | 41.26837 | 28.74611 | 332 ft | 14 kts | 360° |
| 2026-05-04 14:24 | 41.26908 | 28.74609 | 334 ft | 8 kts | 359° |
| 2026-05-04 14:24 | 41.26961 | 28.74634 | 334 ft | 9 kts | 49° |
| 2026-05-04 14:24 | 41.26975 | 28.74715 | 331 ft | 10 kts | 88° |
| 2026-05-04 14:24 | 41.26975 | 28.74807 | 334 ft | 11 kts | 89° |
| 2026-05-04 14:25 | 41.26977 | 28.74909 | 332 ft | 12 kts | 88° |
| 2026-05-04 14:25 | 41.26980 | 28.75138 | 332 ft | 13 kts | 88° |
| 2026-05-04 14:25 | 41.26982 | 28.75264 | 330 ft | 14 kts | 90° |
| 2026-05-04 14:26 | 41.26961 | 28.75362 | 334 ft | 11 kts | 141° |
| 2026-05-04 14:26 | 41.26886 | 28.75377 | 330 ft | 11 kts | 179° |
| 2026-05-04 14:26 | 41.26803 | 28.75377 | 330 ft | 12 kts | 179° |
| 2026-05-04 14:26 | 41.26717 | 28.75379 | 331 ft | 11 kts | 180° |
| 2026-05-04 14:27 | 41.26635 | 28.75383 | 330 ft | 12 kts | 178° |
| 2026-05-04 14:27 | 41.26546 | 28.75384 | 332 ft | 13 kts | 179° |
| 2026-05-04 14:27 | 41.26461 | 28.75389 | 332 ft | 10 kts | 167° |
| 2026-05-04 14:27 | 41.26424 | 28.75463 | 330 ft | 10 kts | 97° |
| 2026-05-04 14:28 | 41.26424 | 28.75521 | 334 ft | 0 kts | 89° |
| 2026-05-04 14:29 | 41.26425 | 28.75565 | 332 ft | 7 kts | 90° |
| 2026-05-04 14:29 | 41.26684 | 28.75663 | 331 ft | 69 kts | 358° |
| 2026-05-04 14:30 | 41.27391 | 28.75648 | 331 ft | 132 kts | 359° |
| 2026-05-04 14:30 | 41.28469 | 28.75624 | 475 ft | 167 kts | 359° |
| 2026-05-04 14:30 | 41.30655 | 28.76411 | 1708 ft | 183 kts | 37° |
| 2026-05-04 14:31 | 41.31694 | 28.77550 | 1934 ft | 203 kts | 35° |
| 2026-05-04 14:31 | 41.34349 | 28.79681 | 2618 ft | 235 kts | 26° |
| 2026-05-04 14:32 | 41.37212 | 28.81758 | 4163 ft | 235 kts | 24° |
| 2026-05-04 14:32 | 41.38765 | 28.82387 | 4851 ft | 236 kts | 5° |
| 2026-05-04 14:32 | 41.40441 | 28.82303 | 5370 ft | 245 kts | 349° |
| 2026-05-04 14:32 | 41.42027 | 28.81448 | 6020 ft | 251 kts | 326° |
| 2026-05-04 14:33 | 41.43184 | 28.79686 | 6699 ft | 259 kts | 303° |
| 2026-05-04 14:33 | 41.44063 | 28.77569 | 7389 ft | 262 kts | 302° |
| 2026-05-04 14:33 | 41.44941 | 28.75429 | 8068 ft | 265 kts | 302° |
| 2026-05-04 14:33 | 41.45828 | 28.73265 | 8717 ft | 267 kts | 303° |
| 2026-05-04 14:34 | 41.46724 | 28.71077 | 9358 ft | 270 kts | 303° |
| 2026-05-04 14:34 | 41.47629 | 28.68870 | 9991 ft | 273 kts | 303° |
| 2026-05-04 14:34 | 41.48566 | 28.66591 | 10301 ft | 290 kts | 304° |
| 2026-05-04 14:34 | 41.49558 | 28.64189 | 10448 ft | 310 kts | 304° |
| 2026-05-04 14:35 | 41.50622 | 28.61610 | 10727 ft | 323 kts | 304° |
| 2026-05-04 14:35 | 41.51706 | 28.58957 | 11249 ft | 328 kts | 304° |
| 2026-05-04 14:35 | 41.52796 | 28.56270 | 11841 ft | 330 kts | 305° |
| 2026-05-04 14:35 | 41.53895 | 28.53561 | 12433 ft | 333 kts | 305° |
| 2026-05-04 14:36 | 41.55002 | 28.50836 | 12978 ft | 336 kts | 305° |
| 2026-05-04 14:36 | 41.56125 | 28.48078 | 13475 ft | 341 kts | 305° |
| 2026-05-04 14:36 | 41.57267 | 28.45283 | 13985 ft | 344 kts | 305° |
| 2026-05-04 14:36 | 41.58418 | 28.42461 | 14490 ft | 348 kts | 305° |
| 2026-05-04 14:37 | 41.59583 | 28.39601 | 14985 ft | 352 kts | 304° |
| 2026-05-04 14:37 | 41.60757 | 28.36706 | 15451 ft | 357 kts | 304° |
| 2026-05-04 14:37 | 41.61946 | 28.33767 | 15922 ft | 361 kts | 304° |
| 2026-05-04 14:37 | 41.63146 | 28.30807 | 16383 ft | 366 kts | 305° |
| 2026-05-04 14:38 | 41.64367 | 28.27802 | 16820 ft | 371 kts | 303° |
| 2026-05-04 14:38 | 41.65587 | 28.24761 | 17252 ft | 373 kts | 304° |
| 2026-05-04 14:38 | 41.66823 | 28.21687 | 17711 ft | 377 kts | 303° |
| 2026-05-04 14:38 | 41.68076 | 28.18586 | 18148 ft | 380 kts | 303° |
| 2026-05-04 14:39 | 41.69339 | 28.15451 | 18554 ft | 385 kts | 303° |
| 2026-05-04 14:39 | 41.70618 | 28.12284 | 18986 ft | 388 kts | 304° |
| 2026-05-04 14:39 | 41.71906 | 28.09090 | 19398 ft | 391 kts | 304° |
| 2026-05-04 14:40 | 41.74507 | 28.02625 | 20190 ft | 397 kts | 304° |
| 2026-05-04 14:40 | 41.75822 | 27.99351 | 20579 ft | 401 kts | 304° |
| 2026-05-04 14:40 | 41.77149 | 27.96049 | 20949 ft | 404 kts | 304° |
| 2026-05-04 14:40 | 41.78484 | 27.92719 | 21314 ft | 407 kts | 304° |
| 2026-05-04 14:41 | 41.79825 | 27.89367 | 21648 ft | 409 kts | 304° |
| 2026-05-04 14:41 | 41.81175 | 27.85985 | 21989 ft | 413 kts | 304° |
| 2026-05-04 14:41 | 41.83880 | 27.79187 | 22656 ft | 419 kts | 304° |
| 2026-05-04 14:42 | 41.86631 | 27.72240 | 23335 ft | 424 kts | 304° |
| 2026-05-04 14:42 | 41.88018 | 27.68734 | 23660 ft | 427 kts | 304° |
| 2026-05-04 14:42 | 41.89422 | 27.65198 | 23974 ft | 430 kts | 304° |
| 2026-05-04 14:43 | 41.90833 | 27.61642 | 24296 ft | 432 kts | 304° |
| 2026-05-04 14:43 | 41.92248 | 27.58073 | 24632 ft | 435 kts | 304° |
| 2026-05-04 14:43 | 41.93673 | 27.54476 | 24951 ft | 437 kts | 304° |
| 2026-05-04 14:43 | 41.95101 | 27.50864 | 25288 ft | 439 kts | 304° |
| 2026-05-04 14:44 | 41.96536 | 27.47227 | 25601 ft | 441 kts | 304° |
| 2026-05-04 14:44 | 41.97975 | 27.43575 | 25917 ft | 443 kts | 303° |
| 2026-05-04 14:44 | 41.99413 | 27.39909 | 26217 ft | 445 kts | 303° |
| 2026-05-04 14:44 | 42.00858 | 27.36218 | 26503 ft | 447 kts | 303° |
| 2026-05-04 14:45 | 42.02310 | 27.32506 | 26767 ft | 450 kts | 303° |
| 2026-05-04 14:45 | 42.03738 | 27.28848 | 27036 ft | 452 kts | 303° |
| 2026-05-04 14:45 | 42.05230 | 27.25019 | 27337 ft | 454 kts | 303° |
| 2026-05-04 14:45 | 42.06859 | 27.21404 | 27626 ft | 450 kts | 311° |
| 2026-05-04 14:46 | 42.08844 | 27.18187 | 27904 ft | 447 kts | 317° |
| 2026-05-04 14:46 | 42.10939 | 27.15072 | 28182 ft | 449 kts | 317° |
| 2026-05-04 14:46 | 42.13031 | 27.11941 | 28449 ft | 451 kts | 317° |
| 2026-05-04 14:46 | 42.15125 | 27.08788 | 28718 ft | 453 kts | 316° |
| 2026-05-04 14:47 | 42.17223 | 27.05617 | 28969 ft | 454 kts | 316° |
| 2026-05-04 14:47 | 42.19300 | 27.02471 | 29223 ft | 456 kts | 316° |
| 2026-05-04 14:47 | 42.21411 | 26.99277 | 29463 ft | 457 kts | 316° |
| 2026-05-04 14:47 | 42.23533 | 26.96071 | 29701 ft | 459 kts | 316° |
| 2026-05-04 14:48 | 42.25662 | 26.92856 | 29923 ft | 460 kts | 316° |
| 2026-05-04 14:48 | 42.27799 | 26.89629 | 30148 ft | 462 kts | 316° |
| 2026-05-04 14:48 | 42.29970 | 26.86338 | 30357 ft | 463 kts | 316° |
| 2026-05-04 14:48 | 42.32084 | 26.83131 | 30548 ft | 465 kts | 316° |
| 2026-05-04 14:49 | 42.34236 | 26.79860 | 30784 ft | 465 kts | 316° |
| 2026-05-04 14:49 | 42.36380 | 26.76597 | 31065 ft | 464 kts | 315° |
| 2026-05-04 14:49 | 42.38519 | 26.73339 | 31322 ft | 463 kts | 315° |
| 2026-05-04 14:49 | 42.40659 | 26.70075 | 31586 ft | 463 kts | 315° |
| 2026-05-04 14:50 | 42.42790 | 26.66820 | 31825 ft | 462 kts | 315° |
| 2026-05-04 14:50 | 42.44924 | 26.63564 | 32075 ft | 462 kts | 315° |
| 2026-05-04 14:50 | 42.47052 | 26.60312 | 32311 ft | 461 kts | 315° |
| 2026-05-04 14:50 | 42.49175 | 26.57062 | 32546 ft | 461 kts | 315° |
| 2026-05-04 14:51 | 42.51295 | 26.53813 | 32777 ft | 460 kts | 315° |
| 2026-05-04 14:51 | 42.53271 | 26.50385 | 33001 ft | 464 kts | 306° |
| 2026-05-04 14:51 | 42.54851 | 26.46548 | 33221 ft | 467 kts | 297° |
| 2026-05-04 14:51 | 42.56014 | 26.42430 | 33433 ft | 469 kts | 291° |
| 2026-05-04 14:52 | 42.57077 | 26.38248 | 33658 ft | 469 kts | 291° |
| 2026-05-04 14:52 | 42.58141 | 26.34071 | 33879 ft | 468 kts | 291° |
| 2026-05-04 14:52 | 42.59201 | 26.29889 | 34094 ft | 468 kts | 291° |
| 2026-05-04 14:52 | 42.60253 | 26.25720 | 34299 ft | 467 kts | 291° |
| 2026-05-04 14:53 | 42.61304 | 26.21555 | 34517 ft | 467 kts | 291° |
| 2026-05-04 14:53 | 42.62361 | 26.17390 | 34734 ft | 465 kts | 294° |
| 2026-05-04 14:53 | 42.63421 | 26.13245 | 34911 ft | 465 kts | 291° |
| 2026-05-04 14:53 | 42.64469 | 26.09088 | 35108 ft | 465 kts | 291° |
| 2026-05-04 14:54 | 42.65507 | 26.04933 | 35308 ft | 464 kts | 291° |
| 2026-05-04 14:54 | 42.66536 | 26.00777 | 35504 ft | 464 kts | 291° |
| 2026-05-04 14:54 | 42.67560 | 25.96627 | 35709 ft | 463 kts | 290° |
| 2026-05-04 14:54 | 42.68584 | 25.92489 | 35931 ft | 461 kts | 290° |
| 2026-05-04 14:55 | 42.69611 | 25.88358 | 36034 ft | 461 kts | 291° |
| 2026-05-04 14:55 | 42.70640 | 25.84232 | 36056 ft | 460 kts | 290° |
| 2026-05-04 14:55 | 42.72687 | 25.75995 | 36053 ft | 460 kts | 290° |
| 2026-05-04 14:56 | 42.74727 | 25.67744 | 36059 ft | 460 kts | 290° |
| 2026-05-04 14:56 | 42.76755 | 25.59495 | 36067 ft | 459 kts | 290° |
| 2026-05-04 14:57 | 42.78776 | 25.51242 | 36068 ft | 460 kts | 290° |
| 2026-05-04 14:57 | 42.80783 | 25.43033 | 36073 ft | 460 kts | 290° |
| 2026-05-04 14:58 | 42.82798 | 25.34746 | 36083 ft | 461 kts | 290° |
| 2026-05-04 14:58 | 42.84478 | 25.27798 | 36087 ft | 461 kts | 290° |
| 2026-05-04 14:59 | 42.86806 | 25.18160 | 36089 ft | 461 kts | 289° |
| 2026-05-04 15:00 | 42.89804 | 25.05707 | 36084 ft | 460 kts | 289° |
| 2026-05-04 15:00 | 42.91791 | 24.97422 | 36086 ft | 460 kts | 289° |
| 2026-05-04 15:01 | 42.94761 | 24.84978 | 36084 ft | 459 kts | 289° |
| 2026-05-04 15:01 | 42.96723 | 24.76696 | 36083 ft | 459 kts | 289° |
| 2026-05-04 15:02 | 42.98683 | 24.68400 | 36085 ft | 459 kts | 289° |
| 2026-05-04 15:02 | 43.00638 | 24.60102 | 36090 ft | 458 kts | 289° |
| 2026-05-04 15:03 | 43.02580 | 24.51814 | 36091 ft | 458 kts | 289° |
| 2026-05-04 15:03 | 43.04519 | 24.43524 | 36096 ft | 458 kts | 289° |
| 2026-05-04 15:04 | 43.06129 | 24.36624 | 36100 ft | 458 kts | 289° |
| 2026-05-04 15:04 | 43.08062 | 24.28306 | 36103 ft | 458 kts | 288° |
| 2026-05-04 15:05 | 43.10255 | 24.18623 | 36105 ft | 459 kts | 287° |
| 2026-05-04 15:05 | 43.11672 | 24.11575 | 36106 ft | 459 kts | 285° |
| 2026-05-04 15:06 | 43.13289 | 24.03125 | 36108 ft | 459 kts | 285° |
| 2026-05-04 15:07 | 43.15737 | 23.90532 | 36110 ft | 458 kts | 286° |
| 2026-05-04 15:07 | 43.17397 | 23.82096 | 36110 ft | 458 kts | 286° |
| 2026-05-04 15:08 | 43.19041 | 23.73674 | 36111 ft | 458 kts | 286° |
| 2026-05-04 15:08 | 43.20680 | 23.65248 | 36117 ft | 457 kts | 286° |
| 2026-05-04 15:09 | 43.22309 | 23.56823 | 36115 ft | 457 kts | 285° |
| 2026-05-04 15:09 | 43.23923 | 23.48407 | 36114 ft | 456 kts | 286° |
| 2026-05-04 15:10 | 43.26353 | 23.35779 | 36113 ft | 456 kts | 286° |
| 2026-05-04 15:11 | 43.28756 | 23.23137 | 36112 ft | 456 kts | 286° |
| 2026-05-04 15:11 | 43.30347 | 23.14707 | 36115 ft | 456 kts | 286° |
| 2026-05-04 15:12 | 43.31925 | 23.06328 | 36115 ft | 456 kts | 286° |
| 2026-05-04 15:12 | 43.33505 | 22.97900 | 36117 ft | 455 kts | 285° |
| 2026-05-04 15:13 | 43.35072 | 22.89497 | 36123 ft | 453 kts | 285° |
| 2026-05-04 15:13 | 43.36621 | 22.81139 | 36126 ft | 450 kts | 285° |
| 2026-05-04 15:14 | 43.38494 | 22.72976 | 36123 ft | 447 kts | 292° |
| 2026-05-04 15:14 | 43.40736 | 22.65020 | 36116 ft | 446 kts | 292° |
| 2026-05-04 15:15 | 43.42963 | 22.57056 | 36113 ft | 445 kts | 292° |
| 2026-05-04 15:15 | 43.45170 | 22.49102 | 36109 ft | 445 kts | 292° |
| 2026-05-04 15:16 | 43.48468 | 22.37220 | 36103 ft | 444 kts | 292° |
| 2026-05-04 15:17 | 43.51749 | 22.25295 | 36099 ft | 444 kts | 291° |
| 2026-05-04 15:17 | 43.55042 | 22.13300 | 36099 ft | 444 kts | 291° |
| 2026-05-04 15:18 | 43.57207 | 22.05394 | 36101 ft | 444 kts | 291° |
| 2026-05-04 15:19 | 43.60470 | 21.93427 | 36103 ft | 444 kts | 291° |
| 2026-05-04 15:19 | 43.63717 | 21.81440 | 36106 ft | 444 kts | 291° |
| 2026-05-04 15:20 | 43.65875 | 21.73459 | 36107 ft | 444 kts | 291° |
| 2026-05-04 15:20 | 43.68021 | 21.65474 | 36111 ft | 443 kts | 291° |
| 2026-05-04 15:21 | 43.69799 | 21.57312 | 36112 ft | 444 kts | 286° |
| 2026-05-04 15:22 | 43.72173 | 21.44943 | 36112 ft | 443 kts | 287° |
| 2026-05-04 15:22 | 43.74542 | 21.32592 | 36109 ft | 443 kts | 287° |
| 2026-05-04 15:23 | 43.76110 | 21.24357 | 36120 ft | 442 kts | 287° |
| 2026-05-04 15:23 | 43.77670 | 21.16126 | 36119 ft | 442 kts | 287° |
| 2026-05-04 15:24 | 43.80765 | 20.99653 | 36131 ft | 442 kts | 287° |
| 2026-05-04 15:25 | 43.82304 | 20.91424 | 36136 ft | 441 kts | 287° |
| 2026-05-04 15:26 | 43.84597 | 20.79094 | 36131 ft | 440 kts | 287° |
| 2026-05-04 15:26 | 43.86875 | 20.66778 | 36136 ft | 439 kts | 287° |
| 2026-05-04 15:27 | 43.89126 | 20.54477 | 36128 ft | 439 kts | 288° |
| 2026-05-04 15:28 | 43.91379 | 20.42172 | 36136 ft | 439 kts | 288° |
| 2026-05-04 15:29 | 43.93598 | 20.29922 | 36126 ft | 438 kts | 288° |
| 2026-05-04 15:30 | 43.98741 | 20.01195 | 36119 ft | 438 kts | 288° |
| 2026-05-04 15:31 | 44.00929 | 19.88878 | 36114 ft | 438 kts | 288° |
| 2026-05-04 15:32 | 44.04522 | 19.68345 | 36109 ft | 437 kts | 287° |
| 2026-05-04 15:34 | 44.08090 | 19.47843 | 36099 ft | 438 kts | 287° |
| 2026-05-04 15:34 | 44.10219 | 19.35498 | 36098 ft | 438 kts | 287° |
| 2026-05-04 15:35 | 44.12310 | 19.23139 | 36097 ft | 437 kts | 287° |
| 2026-05-04 15:36 | 44.14411 | 19.10795 | 36089 ft | 436 kts | 286° |
| 2026-05-04 15:36 | 44.15799 | 19.02574 | 36087 ft | 436 kts | 286° |
| 2026-05-04 15:37 | 44.17176 | 18.94357 | 36086 ft | 435 kts | 286° |
| 2026-05-04 15:37 | 44.18547 | 18.86138 | 36089 ft | 435 kts | 286° |
| 2026-05-04 15:38 | 44.19908 | 18.77931 | 36086 ft | 435 kts | 286° |
| 2026-05-04 15:38 | 44.21262 | 18.69721 | 36082 ft | 435 kts | 286° |
| 2026-05-04 15:39 | 44.22606 | 18.61561 | 36078 ft | 434 kts | 286° |
| 2026-05-04 15:40 | 44.24626 | 18.49266 | 36077 ft | 433 kts | 285° |
| 2026-05-04 15:40 | 44.25951 | 18.41065 | 36079 ft | 433 kts | 285° |
| 2026-05-04 15:41 | 44.27276 | 18.32867 | 36079 ft | 432 kts | 285° |
| 2026-05-04 15:41 | 44.28598 | 18.24680 | 36079 ft | 432 kts | 285° |
| 2026-05-04 15:42 | 44.29912 | 18.16493 | 36083 ft | 432 kts | 285° |
| 2026-05-04 15:42 | 44.31212 | 18.08298 | 36078 ft | 433 kts | 285° |
| 2026-05-04 15:43 | 44.32512 | 18.00092 | 36074 ft | 433 kts | 285° |
| 2026-05-04 15:43 | 44.33811 | 17.91887 | 36077 ft | 432 kts | 285° |
| 2026-05-04 15:44 | 44.35098 | 17.83692 | 36079 ft | 432 kts | 285° |
| 2026-05-04 15:44 | 44.36380 | 17.75507 | 36078 ft | 431 kts | 285° |
| 2026-05-04 15:45 | 44.37659 | 17.67321 | 36078 ft | 431 kts | 285° |
| 2026-05-04 15:45 | 44.38925 | 17.59125 | 36077 ft | 431 kts | 284° |
| 2026-05-04 15:46 | 44.40182 | 17.50936 | 36074 ft | 430 kts | 284° |
| 2026-05-04 15:46 | 44.41432 | 17.42749 | 36072 ft | 430 kts | 284° |
| 2026-05-04 15:47 | 44.42681 | 17.34563 | 36073 ft | 430 kts | 284° |
| 2026-05-04 15:47 | 44.43910 | 17.26431 | 36063 ft | 431 kts | 284° |
| 2026-05-04 15:48 | 44.45150 | 17.18235 | 36065 ft | 430 kts | 284° |
| 2026-05-04 15:48 | 44.46999 | 17.05940 | 36069 ft | 430 kts | 284° |
| 2026-05-04 15:49 | 44.48215 | 16.97736 | 36068 ft | 430 kts | 284° |
| 2026-05-04 15:49 | 44.49429 | 16.89547 | 36069 ft | 429 kts | 284° |
| 2026-05-04 15:50 | 44.50630 | 16.81366 | 36076 ft | 428 kts | 284° |
| 2026-05-04 15:50 | 44.51825 | 16.73199 | 36074 ft | 428 kts | 283° |
| 2026-05-04 15:51 | 44.53016 | 16.65035 | 36077 ft | 428 kts | 283° |
| 2026-05-04 15:51 | 44.54198 | 16.56869 | 36076 ft | 427 kts | 283° |
| 2026-05-04 15:52 | 44.55376 | 16.48704 | 36077 ft | 427 kts | 283° |
| 2026-05-04 15:52 | 44.56553 | 16.40554 | 36074 ft | 426 kts | 283° |
| 2026-05-04 15:53 | 44.57707 | 16.32461 | 36072 ft | 426 kts | 283° |
| 2026-05-04 15:53 | 44.58861 | 16.24313 | 36079 ft | 426 kts | 283° |
| 2026-05-04 15:54 | 44.60011 | 16.16155 | 36087 ft | 426 kts | 283° |
| 2026-05-04 15:54 | 44.60964 | 16.09380 | 36090 ft | 426 kts | 283° |
| 2026-05-04 15:55 | 44.62108 | 16.01231 | 36092 ft | 425 kts | 283° |
| 2026-05-04 15:55 | 44.63232 | 15.93087 | 36095 ft | 425 kts | 282° |
| 2026-05-04 15:56 | 44.64355 | 15.84943 | 36099 ft | 425 kts | 282° |
| 2026-05-04 15:56 | 44.65474 | 15.76799 | 36101 ft | 425 kts | 282° |
| 2026-05-04 15:57 | 44.66587 | 15.68657 | 36101 ft | 425 kts | 282° |
| 2026-05-04 15:57 | 44.67699 | 15.60515 | 36107 ft | 424 kts | 282° |
| 2026-05-04 15:58 | 44.68804 | 15.52365 | 36113 ft | 425 kts | 282° |
| 2026-05-04 15:58 | 44.69894 | 15.44213 | 36110 ft | 424 kts | 282° |
| 2026-05-04 15:59 | 44.70984 | 15.36066 | 36116 ft | 424 kts | 282° |
| 2026-05-04 15:59 | 44.72068 | 15.27912 | 36116 ft | 424 kts | 282° |
| 2026-05-04 16:00 | 44.73149 | 15.19764 | 36118 ft | 425 kts | 282° |
| 2026-05-04 16:00 | 44.74227 | 15.11588 | 36113 ft | 425 kts | 281° |
| 2026-05-04 16:01 | 44.75288 | 15.03469 | 36119 ft | 425 kts | 281° |
| 2026-05-04 16:01 | 44.76354 | 14.95290 | 36121 ft | 425 kts | 281° |
| 2026-05-04 16:02 | 44.77407 | 14.87078 | 36120 ft | 426 kts | 281° |
| 2026-05-04 16:03 | 44.78977 | 14.74786 | 36123 ft | 425 kts | 281° |
| 2026-05-04 16:03 | 44.80019 | 14.66600 | 36120 ft | 424 kts | 281° |
| 2026-05-04 16:04 | 44.81063 | 14.58415 | 36117 ft | 425 kts | 281° |
| 2026-05-04 16:04 | 44.82601 | 14.46125 | 36127 ft | 425 kts | 281° |
| 2026-05-04 16:05 | 44.83619 | 14.37921 | 36129 ft | 425 kts | 280° |
| 2026-05-04 16:06 | 44.85131 | 14.25627 | 36132 ft | 424 kts | 280° |
| 2026-05-04 16:07 | 44.87134 | 14.09291 | 36130 ft | 425 kts | 280° |
| 2026-05-04 16:08 | 44.89118 | 13.92885 | 36132 ft | 424 kts | 279° |
| 2026-05-04 16:09 | 44.92550 | 13.72690 | 36132 ft | 423 kts | 284° |
| 2026-05-04 16:10 | 44.95382 | 13.56636 | 36128 ft | 423 kts | 283° |
| 2026-05-04 16:11 | 44.98123 | 13.40487 | 36121 ft | 423 kts | 283° |
| 2026-05-04 16:12 | 45.02230 | 13.16277 | 36112 ft | 422 kts | 283° |
| 2026-05-04 16:13 | 45.04924 | 13.00132 | 36102 ft | 422 kts | 282° |
| 2026-05-04 16:14 | 45.06269 | 12.92042 | 35283 ft | 424 kts | 282° |
| 2026-05-04 16:14 | 45.07610 | 12.83930 | 33961 ft | 424 kts | 282° |
| 2026-05-04 16:15 | 45.09632 | 12.71601 | 31778 ft | 429 kts | 282° |
| 2026-05-04 16:16 | 45.10971 | 12.63454 | 30743 ft | 422 kts | 282° |
| 2026-05-04 16:16 | 45.12916 | 12.51451 | 29086 ft | 415 kts | 282° |
| 2026-05-04 16:17 | 45.13763 | 12.43346 | 27866 ft | 418 kts | 276° |
| 2026-05-04 16:18 | 45.14795 | 12.30984 | 25913 ft | 425 kts | 276° |
| 2026-05-04 16:18 | 45.15139 | 12.26825 | 25217 ft | 426 kts | 276° |
| 2026-05-04 16:19 | 45.14435 | 12.14294 | 22831 ft | 431 kts | 252° |
| 2026-05-04 16:19 | 45.12278 | 12.06318 | 21240 ft | 436 kts | 249° |
| 2026-05-04 16:20 | 45.08939 | 11.94262 | 18817 ft | 441 kts | 248° |
| 2026-05-04 16:20 | 45.06701 | 11.86212 | 17214 ft | 436 kts | 248° |
| 2026-05-04 16:21 | 45.03482 | 11.74688 | 15991 ft | 393 kts | 248° |
| 2026-05-04 16:22 | 45.01580 | 11.67896 | 15949 ft | 351 kts | 247° |
| 2026-05-04 16:22 | 44.98902 | 11.58430 | 15945 ft | 345 kts | 247° |
| 2026-05-04 16:23 | 44.96247 | 11.49036 | 15942 ft | 345 kts | 247° |
| 2026-05-04 16:24 | 44.92715 | 11.36612 | 14288 ft | 319 kts | 246° |
| 2026-05-04 16:25 | 44.90747 | 11.31309 | 13451 ft | 303 kts | 229° |
| 2026-05-04 16:26 | 44.83464 | 11.26025 | 11815 ft | 297 kts | 196° |
| 2026-05-04 16:26 | 44.77590 | 11.23574 | 10589 ft | 292 kts | 197° |
| 2026-05-04 16:27 | 44.73770 | 11.21980 | 10023 ft | 281 kts | 197° |
| 2026-05-04 16:28 | 44.69995 | 11.16499 | 9628 ft | 269 kts | 263° |
| 2026-05-04 16:28 | 44.71790 | 11.09191 | 8605 ft | 268 kts | 295° |
| 2026-05-04 16:29 | 44.71556 | 10.99943 | 6338 ft | 259 kts | 215° |
| 2026-05-04 16:30 | 44.66842 | 10.96865 | 4607 ft | 238 kts | 184° |
| 2026-05-04 16:31 | 44.64199 | 10.99010 | 3591 ft | 233 kts | 121° |
| 2026-05-04 16:31 | 44.62083 | 11.05021 | 2767 ft | 214 kts | 118° |
| 2026-05-04 16:32 | 44.60114 | 11.10533 | 2431 ft | 211 kts | 118° |
| 2026-05-04 16:33 | 44.58850 | 11.14068 | 2217 ft | 191 kts | 118° |
| 2026-05-04 16:33 | 44.57716 | 11.17244 | 1766 ft | 170 kts | 118° |
| 2026-05-04 16:34 | 44.56738 | 11.19968 | 1343 ft | 148 kts | 119° |
| 2026-05-04 16:34 | 44.56285 | 11.21231 | 1149 ft | 146 kts | 119° |
| 2026-05-04 16:35 | 44.54947 | 11.25028 | 603 ft | 144 kts | 120° |
| 2026-05-04 16:35 | 44.53591 | 11.28729 | 129 ft | 126 kts | 115° |
| 2026-05-04 16:36 | 44.53327 | 11.29464 | 131 ft | 41 kts | 117° |
| 2026-05-04 16:36 | 44.53138 | 11.29699 | 130 ft | 8 kts | 150° |
| 2026-05-04 16:37 | 44.53043 | 11.29776 | 130 ft | 3 kts | 202° |
| 2026-05-04 16:37 | 44.53035 | 11.29745 | 130 ft | 4 kts | 273° |
| 2026-05-04 16:37 | 44.53081 | 11.29612 | 130 ft | 4 kts | 285° |
| 2026-05-04 16:38 | 44.53071 | 11.29495 | 131 ft | 7 kts | 295° |
| 2026-05-04 16:39 | 44.53044 | 11.29437 | 131 ft | 4 kts | 208° |
| 2026-05-04 16:39 | 44.53034 | 11.29430 | 131 ft | 0 kts | 208° |